Time,TemperatureF,DewpointF,PressureIn,WindDirection,WindDirectionDegrees,WindSpeedMPH,WindSpeedGustMPH,Humidity,HourlyPrecipIn,Conditions,Clouds,dailyrainin,SoftwareType,DateUTC
2013-08-25 00:02:00,-999.0,-99.9,30.30,East,80,1.0,2.0,-999,-99.99,,,-99.99,,2013-08-25 04:02:00,
2013-08-25 00:14:00,67.0,63.0,30.30,East,80,1.0,2.0,87,0.00,,,0.00,,2013-08-25 04:14:00,
2013-08-25 00:25:00,67.0,63.0,30.31,NE,43,0.0,1.0,88,0.00,,,0.00,,2013-08-25 04:25:00,
2013-08-25 00:43:00,66.0,63.0,30.31,NNE,20,0.0,1.0,90,0.00,,,0.00,,2013-08-25 04:43:00,
2013-08-25 00:54:00,66.0,63.0,30.31,NE,44,0.0,1.0,90,0.00,,,0.00,,2013-08-25 04:54:00,
2013-08-25 01:12:00,66.0,63.0,30.31,ESE,105,0.0,1.0,90,0.00,,,0.00,,2013-08-25 05:12:00,
2013-08-25 01:23:00,66.0,63.0,30.31,ENE,75,0.0,2.0,91,0.00,,,0.00,,2013-08-25 05:23:00,
2013-08-25 01:42:00,66.0,63.0,30.31,NNE,13,0.0,1.0,91,0.00,,,0.00,,2013-08-25 05:42:00,
2013-08-25 01:52:00,65.0,62.0,30.31,East,84,0.0,1.0,91,0.00,,,0.00,,2013-08-25 05:52:00,
2013-08-25 02:12:00,65.0,63.0,30.31,North,9,0.0,2.0,92,0.00,,,0.00,,2013-08-25 06:12:00,
2013-08-25 02:22:00,65.0,63.0,30.30,East,79,0.0,1.0,92,0.00,,,0.00,,2013-08-25 06:22:00,
2013-08-25 02:43:00,65.0,63.0,30.30,East,85,0.0,1.0,93,0.00,,,0.00,,2013-08-25 06:43:00,
2013-08-25 02:52:00,64.0,62.0,30.30,East,85,0.0,0.0,94,0.00,,,0.00,,2013-08-25 06:52:00,
2013-08-25 03:12:00,64.0,63.0,30.30,ENE,70,0.0,1.0,95,0.00,,,0.00,,2013-08-25 07:12:00,
2013-08-25 03:22:00,64.0,63.0,30.30,NNW,335,0.0,1.0,95,0.00,,,0.00,,2013-08-25 07:22:00,
2013-08-25 03:42:00,64.0,63.0,30.30,NNW,334,0.0,1.0,96,0.00,,,0.00,,2013-08-25 07:42:00,
2013-08-25 03:52:00,64.0,63.0,30.30,NNW,334,0.0,1.0,96,0.00,,,0.00,,2013-08-25 07:52:00,
2013-08-25 04:12:00,63.0,62.0,30.30,NNW,335,0.0,0.0,96,0.00,,,0.00,,2013-08-25 08:12:00,
2013-08-25 04:21:00,63.0,62.0,30.30,NNW,335,0.0,0.0,97,0.00,,,0.00,,2013-08-25 08:21:00,
2013-08-25 04:52:00,63.0,62.0,30.30,NNW,333,0.0,0.0,97,0.00,,,0.00,,2013-08-25 08:52:00,
2013-08-25 05:11:00,63.0,62.0,30.30,NNW,333,0.0,0.0,97,0.00,,,0.00,,2013-08-25 09:11:00,
2013-08-25 05:22:00,63.0,62.0,30.30,North,352,0.0,2.0,97,0.00,,,0.00,,2013-08-25 09:22:00,
2013-08-25 05:44:00,62.0,61.0,30.31,NNE,12,0.0,1.0,97,0.00,,,0.00,,2013-08-25 09:44:00,
2013-08-25 05:55:00,62.0,61.0,30.31,North,11,0.0,0.0,97,0.00,,,0.00,,2013-08-25 09:55:00,
2013-08-25 06:12:00,62.0,61.0,30.31,North,5,0.0,1.0,97,0.00,,,0.00,,2013-08-25 10:12:00,
2013-08-25 06:23:00,62.0,61.0,30.31,North,5,0.0,1.0,97,0.00,,,0.00,,2013-08-25 10:23:00,
2013-08-25 06:53:00,62.0,61.0,30.32,North,11,0.0,2.0,98,0.00,,,0.00,,2013-08-25 10:53:00,
2013-08-25 07:12:00,62.0,61.0,30.33,NNW,340,0.0,2.0,98,0.00,,,0.00,,2013-08-25 11:12:00,
2013-08-25 07:22:00,62.0,61.0,30.34,NW,319,1.0,2.0,98,0.00,,,0.00,,2013-08-25 11:22:00,
2013-08-25 07:42:00,62.0,61.0,30.35,NNW,341,0.0,1.0,98,0.00,,,0.00,,2013-08-25 11:42:00,
2013-08-25 07:52:00,63.0,62.0,30.35,NNE,27,2.0,3.0,98,0.00,,,0.00,,2013-08-25 11:52:00,
2013-08-25 08:12:00,64.0,63.0,30.36,NNW,348,2.0,4.0,97,0.00,,,0.00,,2013-08-25 12:12:00,
2013-08-25 08:22:00,66.0,65.0,30.37,North,4,2.0,5.0,95,0.00,,,0.00,,2013-08-25 12:22:00,
2013-08-25 08:43:00,67.0,64.0,30.37,NNW,340,3.0,5.0,91,0.00,,,0.00,,2013-08-25 12:43:00,
2013-08-25 08:52:00,68.0,65.0,30.37,NNE,18,3.0,5.0,89,0.00,,,0.00,,2013-08-25 12:52:00,
2013-08-25 09:12:00,69.0,65.0,30.37,NE,38,2.0,5.0,86,0.00,,,0.00,,2013-08-25 13:12:00,
2013-08-25 09:52:00,72.0,65.0,30.38,North,1,4.0,8.0,78,0.00,,,0.00,,2013-08-25 13:52:00,
2013-08-25 10:11:00,73.0,64.0,30.39,East,101,4.0,8.0,74,0.00,,,0.00,,2013-08-25 14:11:00,
2013-08-25 10:26:00,73.0,63.0,30.39,East,96,4.0,7.0,70,0.00,,,0.00,,2013-08-25 14:26:00,
2013-08-25 10:52:00,74.0,64.0,30.39,NNE,19,4.0,9.0,70,0.00,,,0.00,,2013-08-25 14:52:00,
2013-08-25 11:11:00,75.0,64.0,30.39,SE,142,4.0,9.0,68,0.00,,,0.00,,2013-08-25 15:11:00,
2013-08-25 11:23:00,75.0,63.0,30.39,NE,56,4.0,11.0,67,0.00,,,0.00,,2013-08-25 15:23:00,
2013-08-25 11:44:00,76.0,64.0,30.39,NNE,16,4.0,10.0,66,0.00,,,0.00,,2013-08-25 15:44:00,
2013-08-25 11:55:00,76.0,63.0,30.38,East,96,5.0,9.0,64,0.00,,,0.00,,2013-08-25 15:55:00,
2013-08-25 12:24:00,76.0,63.0,30.37,North,359,4.0,11.0,64,0.00,,,0.00,,2013-08-25 16:24:00,
2013-08-25 12:44:00,76.0,62.0,30.37,NE,34,4.0,7.0,63,0.00,,,0.00,,2013-08-25 16:44:00,
2013-08-25 12:54:00,78.0,64.0,30.36,WNW,294,3.0,11.0,63,0.00,,,0.00,,2013-08-25 16:54:00,
2013-08-25 13:12:00,77.0,63.0,30.36,North,11,3.0,9.0,61,0.00,,,0.00,,2013-08-25 17:12:00,
2013-08-25 13:23:00,78.0,62.0,30.36,NE,39,2.0,7.0,58,0.00,,,0.00,,2013-08-25 17:23:00,
2013-08-25 13:43:00,79.0,62.0,30.36,NE,41,2.0,7.0,56,0.00,,,0.00,,2013-08-25 17:43:00,
2013-08-25 13:53:00,79.0,60.0,30.35,NNE,19,5.0,14.0,53,0.00,,,0.00,,2013-08-25 17:53:00,
2013-08-25 14:12:00,79.0,61.0,30.35,NNE,13,3.0,12.0,55,0.00,,,0.00,,2013-08-25 18:12:00,
2013-08-25 14:22:00,79.0,62.0,30.34,ESE,105,3.0,7.0,57,0.00,,,0.00,,2013-08-25 18:22:00,
2013-08-25 14:43:00,79.0,61.0,30.34,NNE,13,2.0,8.0,54,0.00,,,0.00,,2013-08-25 18:43:00,
2013-08-25 14:52:00,81.0,62.0,30.34,East,80,4.0,7.0,52,0.00,,,0.00,,2013-08-25 18:52:00,
2013-08-25 15:12:00,80.0,61.0,30.33,NNE,25,2.0,6.0,52,0.00,,,0.00,,2013-08-25 19:12:00,
2013-08-25 15:22:00,80.0,61.0,30.33,East,86,2.0,7.0,53,0.00,,,0.00,,2013-08-25 19:22:00,
2013-08-25 15:42:00,80.0,59.0,30.32,East,87,3.0,7.0,48,0.00,,,0.00,,2013-08-25 19:42:00,
2013-08-25 15:53:00,80.0,59.0,30.31,NNE,13,4.0,6.0,48,0.00,,,0.00,,2013-08-25 19:53:00,
2013-08-25 16:12:00,80.0,60.0,30.31,North,356,5.0,8.0,50,0.00,,,0.00,,2013-08-25 20:12:00,
2013-08-25 16:23:00,80.0,59.0,30.30,NE,46,5.0,9.0,49,0.00,,,0.00,,2013-08-25 20:23:00,
2013-08-25 16:43:00,80.0,59.0,30.30,ESE,118,3.0,8.0,49,0.00,,,0.00,,2013-08-25 20:43:00,
2013-08-25 16:53:00,80.0,57.0,30.30,NE,53,5.0,9.0,46,0.00,,,0.00,,2013-08-25 20:53:00,
2013-08-25 17:12:00,80.0,59.0,30.30,NE,54,2.0,6.0,49,0.00,,,0.00,,2013-08-25 21:12:00,
2013-08-25 17:22:00,80.0,57.0,30.30,East,96,2.0,6.0,45,0.00,,,0.00,,2013-08-25 21:22:00,
2013-08-25 17:43:00,80.0,56.0,30.30,East,80,4.0,9.0,44,0.00,,,0.00,,2013-08-25 21:43:00,
2013-08-25 17:55:00,80.0,59.0,30.30,East,86,3.0,7.0,48,0.00,,,0.00,,2013-08-25 21:55:00,
2013-08-25 18:14:00,80.0,59.0,30.30,NNE,13,3.0,6.0,49,0.00,,,0.00,,2013-08-25 22:14:00,
2013-08-25 18:24:00,79.0,57.0,30.30,NNE,32,2.0,5.0,47,0.00,,,0.00,,2013-08-25 22:24:00,
2013-08-25 18:43:00,79.0,58.0,30.30,ESE,115,2.0,6.0,49,0.00,,,0.00,,2013-08-25 22:43:00,
2013-08-25 18:53:00,78.0,58.0,30.30,ENE,68,1.0,6.0,50,0.00,,,0.00,,2013-08-25 22:53:00,
2013-08-25 19:12:00,77.0,58.0,30.30,ESE,118,1.0,7.0,52,0.00,,,0.00,,2013-08-25 23:12:00,
2013-08-25 19:23:00,76.0,58.0,30.29,SE,124,1.0,4.0,53,0.00,,,0.00,,2013-08-25 23:23:00,
2013-08-25 19:43:00,75.0,58.0,30.29,East,98,0.0,1.0,56,0.00,,,0.00,,2013-08-25 23:43:00,
2013-08-25 19:53:00,74.0,59.0,30.29,SE,134,0.0,1.0,59,0.00,,,0.00,,2013-08-25 23:53:00,
2013-08-25 20:11:00,72.0,59.0,30.29,SE,134,0.0,1.0,63,0.00,,,0.00,,2013-08-26 00:11:00,
2013-08-25 20:22:00,70.0,59.0,30.30,SE,132,0.0,1.0,67,0.00,,,0.00,,2013-08-26 00:22:00,
2013-08-25 20:42:00,68.0,58.0,30.30,SE,133,0.0,1.0,71,0.00,,,0.00,,2013-08-26 00:42:00,
2013-08-25 20:52:00,66.0,58.0,30.30,SE,133,0.0,0.0,75,0.00,,,0.00,,2013-08-26 00:52:00,
2013-08-25 21:11:00,64.0,57.0,30.30,SE,132,0.0,0.0,79,0.00,,,0.00,,2013-08-26 01:11:00,
2013-08-25 21:22:00,65.0,59.0,30.31,SE,132,0.0,0.0,81,0.00,,,0.00,,2013-08-26 01:22:00,
2013-08-25 21:42:00,63.0,58.0,30.31,SE,132,0.0,0.0,84,0.00,,,0.00,,2013-08-26 01:42:00,
2013-08-25 21:52:00,62.0,58.0,30.31,SE,133,0.0,0.0,87,0.00,,,0.00,,2013-08-26 01:52:00,
2013-08-25 22:11:00,62.0,58.0,30.31,SE,132,0.0,0.0,88,0.00,,,0.00,,2013-08-26 02:11:00,
2013-08-25 22:22:00,61.0,58.0,30.31,SE,132,0.0,0.0,89,0.00,,,0.00,,2013-08-26 02:22:00,
2013-08-25 22:42:00,61.0,58.0,30.31,SE,133,0.0,1.0,90,0.00,,,0.00,,2013-08-26 02:42:00,
2013-08-25 22:52:00,61.0,58.0,30.32,SE,132,0.0,1.0,91,0.00,,,0.00,,2013-08-26 02:52:00,
2013-08-25 23:11:00,60.0,57.0,30.32,SE,132,0.0,0.0,91,0.00,,,0.00,,2013-08-26 03:11:00,
2013-08-25 23:22:00,60.0,58.0,30.32,SE,133,0.0,0.0,93,0.00,,,0.00,,2013-08-26 03:22:00,
2013-08-25 23:44:00,61.0,61.0,30.32,SE,133,0.0,1.0,100,0.00,,,0.00,,2013-08-26 03:44:00,
2013-08-25 23:56:00,61.0,61.0,30.32,SE,133,0.0,1.0,100,0.00,,,0.00,,2013-08-26 03:56:00,